Time;durP1;ratioP1;P1;durP2;ratioP2;P2;SDS_P1;SDS_P2;PMS_P1;PMS_P2;Temp;Humidity;BMP_temperature;BMP_pressure;BME280_temperature;BME280_humidity;BME280_pressure;Samples;Min_cycle;Max_cycle;Signal;HPM_P1;HPM_P2
2023/09/26 00:02:05;;;;;;;;;;;;;;;20.91;74.99;101158.16;5436817;32;34091;-79
2023/09/26 00:05:08;;;;;;;;;;;;;;;20.93;74.96;101161.59;5429463;32;34081;-79
2023/09/26 00:08:11;;;;;;;;;;;;;;;20.86;74.87;101160.28;5432301;32;34105;-79
2023/09/26 00:11:13;;;;;;;;;;;;;;;21.12;74.44;101157.59;5429912;32;34652;-79
2023/09/26 00:14:15;;;;;;;;;;;;;;;20.88;74.72;101155.72;5414590;32;34376;-79
2023/09/26 00:17:18;;;;;;;;;;;;;;;20.84;76.00;101162.22;5432216;32;35478;-79
2023/09/26 00:20:23;;;;;;;;;;;;;;;20.45;77.44;101164.00;5433860;32;33923;-79
2023/09/26 00:23:26;;;;;;;;;;;;;;;20.09;79.83;101163.78;5429980;32;35293;-79
2023/09/26 00:26:46;;;;;;;;;;;;;;;20.25;79.21;101169.81;5434489;32;34466;-79
2023/09/26 00:30:10;;;;;;;;;;;;;;;20.63;77.40;101164.56;5429005;32;34559;-79
2023/09/26 00:33:12;;;;;;;;;;;;;;;20.45;76.77;101157.81;5409921;32;34940;-79
2023/09/26 00:36:15;;;;;;;;;;;;;;;19.89;80.97;101163.28;5430420;32;34314;-80
2023/09/26 00:39:17;;;;;;;;;;;;;;;19.95;80.90;101157.56;5429916;32;34308;-79
2023/09/26 00:42:19;;;;;;;;;;;;;;;19.96;81.02;101169.06;5434904;32;34417;-79
2023/09/26 00:45:21;;;;;;;;;;;;;;;20.76;75.72;101149.41;5431970;32;34169;-79
2023/09/26 00:48:24;;;;;;;;;;;;;;;20.49;79.25;101160.19;5430116;32;34448;-79
2023/09/26 00:51:26;;;;;;;;;;;;;;;20.17;78.90;101161.47;5435396;32;34085;-80
2023/09/26 00:54:30;;;;;;;;;;;;;;;21.06;75.04;101157.09;5427217;32;34287;-79
2023/09/26 00:57:35;;;;;;;;;;;;;;;20.61;75.62;101160.28;5429276;32;34343;-79
2023/09/26 01:00:37;;;;;;;;;;;;;;;20.00;81.26;101160.78;5431580;32;36546;-79
2023/09/26 01:03:40;;;;;;;;;;;;;;;20.72;76.40;101155.06;5427875;32;35492;-80
2023/09/26 01:06:43;;;;;;;;;;;;;;;20.26;79.97;101158.19;5440190;32;35183;-79
2023/09/26 01:09:46;;;;;;;;;;;;;;;19.80;82.24;101155.06;5427539;32;35334;-79
2023/09/26 01:12:49;;;;;;;;;;;;;;;19.88;80.56;101158.91;5430098;32;34046;-79
2023/09/26 01:15:51;;;;;;;;;;;;;;;20.65;77.96;101161.78;5431315;32;34177;-79
2023/09/26 01:18:53;;;;;;;;;;;;;;;20.13;79.54;101160.81;5429014;32;34298;-79
2023/09/26 01:21:56;;;;;;;;;;;;;;;19.76;82.17;101159.72;5433742;32;34321;-80
2023/09/26 01:24:58;;;;;;;;;;;;;;;20.07;80.31;101160.38;5409401;32;35605;-79
2023/09/26 01:28:06;;;;;;;;;;;;;;;20.18;79.83;101157.84;5434271;32;34208;-80
2023/09/26 01:31:08;;;;;;;;;;;;;;;20.80;76.15;101155.37;5429501;32;35658;-78
2023/09/26 01:34:10;;;;;;;;;;;;;;;20.59;75.44;101157.72;5429793;32;34431;-78
2023/09/26 01:37:20;;;;;;;;;;;;;;;19.56;83.35;101155.66;5433066;32;33691;-78
2023/09/26 01:40:40;;;;;;;;;;;;;;;19.84;81.89;101160.09;5414502;32;34846;-78
2023/09/26 01:43:49;;;;;;;;;;;;;;;19.51;83.60;101154.22;5418164;32;32944;-78
2023/09/26 01:47:46;;;;;;;;;;;;;;;19.81;82.28;101148.75;5426200;32;34556;-80
2023/09/26 01:51:26;;;;;;;;;;;;;;;20.06;81.14;101159.50;5378343;32;34231;-78
2023/09/26 01:54:40;;;;;;;;;;;;;;;19.89;80.39;101173.09;5371247;32;34936;-79
2023/09/26 01:57:43;;;;;;;;;;;;;;;19.43;84.17;101155.56;5379854;32;33098;-78
2023/09/26 02:00:54;;;;;;;;;;;;;;;19.12;86.74;101163.78;5391970;32;33935;-78
2023/09/26 02:04:18;;;;;;;;;;;;;;;19.35;83.89;101168.53;5395145;32;34122;-79
2023/09/26 02:07:34;;;;;;;;;;;;;;;19.71;84.12;101164.50;5371741;32;35191;-80
2023/09/26 02:11:16;;;;;;;;;;;;;;;19.52;83.94;101163.97;5392611;32;34634;-80
2023/09/26 02:14:28;;;;;;;;;;;;;;;20.21;81.09;101160.28;5392534;32;34143;-78
2023/09/26 02:17:45;;;;;;;;;;;;;;;19.49;83.96;101160.50;5391190;32;33794;-79
2023/09/26 02:21:26;;;;;;;;;;;;;;;19.72;81.62;101160.88;5353436;33;33536;-80
2023/09/26 02:24:39;;;;;;;;;;;;;;;20.72;76.70;101158.59;5354427;33;35054;-78
2023/09/26 02:28:02;;;;;;;;;;;;;;;19.31;83.97;101164.34;5349165;33;34471;-79
2023/09/26 02:31:17;;;;;;;;;;;;;;;20.00;81.48;101157.25;5342542;33;34227;-79
2023/09/26 02:34:31;;;;;;;;;;;;;;;19.83;81.72;101171.69;5349980;33;32797;-79
2023/09/26 02:37:55;;;;;;;;;;;;;;;19.04;87.04;101163.41;5352094;33;34866;-79
2023/09/26 02:41:14;;;;;;;;;;;;;;;19.45;86.72;101169.69;5354722;33;34888;-79
2023/09/26 02:44:43;;;;;;;;;;;;;;;19.29;86.49;101170.75;5350414;33;34372;-79
2023/09/26 02:48:00;;;;;;;;;;;;;;;20.13;81.95;101171.50;5351301;32;33756;-79
2023/09/26 02:51:05;;;;;;;;;;;;;;;19.77;81.81;101174.75;5351648;33;34205;-79
2023/09/26 02:54:18;;;;;;;;;;;;;;;20.00;81.29;101171.44;5350578;32;34272;-79
2023/09/26 02:57:43;;;;;;;;;;;;;;;20.08;80.81;101170.06;5317461;33;35573;-79
2023/09/26 03:01:00;;;;;;;;;;;;;;;20.07;80.64;101171.03;5323563;33;34191;-79
2023/09/26 03:04:09;;;;;;;;;;;;;;;19.40;84.81;101171.78;5317898;33;35296;-79
2023/09/26 03:07:47;;;;;;;;;;;;;;;19.32;84.82;101178.53;5335851;33;33933;-78
2023/09/26 03:11:13;;;;;;;;;;;;;;;19.31;85.38;101166.16;5331805;33;35165;-78
2023/09/26 03:14:49;;;;;;;;;;;;;;;18.91;86.29;101172.16;5332115;33;34515;-79
2023/09/26 03:17:59;;;;;;;;;;;;;;;18.92;87.27;101178.34;5335870;33;34093;-78
2023/09/26 03:21:27;;;;;;;;;;;;;;;19.41;83.99;101167.28;5324319;33;34554;-78
2023/09/26 03:24:55;;;;;;;;;;;;;;;19.52;83.68;101162.16;5334290;33;32891;-80
2023/09/26 03:28:03;;;;;;;;;;;;;;;19.13;86.64;101178.84;5327457;33;34088;-78
2023/09/26 03:31:29;;;;;;;;;;;;;;;19.36;84.72;101172.06;5361585;32;34514;-79
2023/09/26 03:34:44;;;;;;;;;;;;;;;19.07;85.94;101176.56;5352210;33;34272;-78
2023/09/26 03:37:47;;;;;;;;;;;;;;;19.33;84.35;101178.44;5340226;33;34308;-78
2023/09/26 03:41:11;;;;;;;;;;;;;;;19.32;83.59;101175.84;5339258;33;34121;-78
2023/09/26 03:44:29;;;;;;;;;;;;;;;19.17;84.34;101172.34;5354143;33;33910;-78
2023/09/26 03:47:40;;;;;;;;;;;;;;;19.31;84.93;101182.16;5351981;33;35630;-81
2023/09/26 03:50:54;;;;;;;;;;;;;;;19.05;86.98;101186.44;5341277;33;35637;-81
2023/09/26 03:54:10;;;;;;;;;;;;;;;19.36;82.91;101185.38;5339353;33;33956;-81
2023/09/26 03:57:31;;;;;;;;;;;;;;;19.13;86.16;101179.72;5339735;33;34335;-80
2023/09/26 04:00:56;;;;;;;;;;;;;;;19.33;84.83;101181.12;5342789;33;34702;-80
2023/09/26 04:03:58;;;;;;;;;;;;;;;19.38;83.09;101172.81;5352198;33;34088;-78
2023/09/26 04:07:06;;;;;;;;;;;;;;;19.86;81.55;101173.31;5352793;32;33242;-78
2023/09/26 04:11:03;;;;;;;;;;;;;;;19.59;82.68;101175.97;5376269;32;35347;-81
2023/09/26 04:14:39;;;;;;;;;;;;;;;19.29;83.33;101178.72;5347046;33;34392;-81
2023/09/26 04:17:49;;;;;;;;;;;;;;;19.77;80.71;101173.91;5351558;33;32797;-80
2023/09/26 04:21:09;;;;;;;;;;;;;;;19.47;82.69;101175.75;5336556;33;34922;-81
2023/09/26 04:25:05;;;;;;;;;;;;;;;19.32;83.80;101184.75;5346274;33;33216;-78
2023/09/26 04:28:37;;;;;;;;;;;;;;;19.81;80.24;101181.63;5282945;33;35405;-78
2023/09/26 04:32:22;;;;;;;;;;;;;;;19.40;82.12;101187.78;5286963;33;34118;-77
2023/09/26 04:36:11;;;;;;;;;;;;;;;19.67;81.59;101185.19;5275758;33;34505;-80
2023/09/26 04:39:37;;;;;;;;;;;;;;;19.75;81.00;101196.19;5274121;33;34091;-79
2023/09/26 04:43:10;;;;;;;;;;;;;;;19.96;79.65;101193.09;5274211;33;34800;-78
2023/09/26 04:46:49;;;;;;;;;;;;;;;19.58;80.97;101206.22;5312086;33;34821;-79
2023/09/26 04:50:39;;;;;;;;;;;;;;;19.32;83.11;101200.72;5312148;33;34951;-79
2023/09/26 04:54:24;;;;;;;;;;;;;;;19.49;81.86;101199.66;5307750;33;34726;-78
2023/09/26 04:57:39;;;;;;;;;;;;;;;19.27;83.16;101199.31;5303762;33;35202;-79
2023/09/26 05:01:11;;;;;;;;;;;;;;;19.83;80.11;101202.84;5314200;33;36275;-80
2023/09/26 05:04:14;;;;;;;;;;;;;;;19.37;83.12;101211.09;5305489;33;34219;-80
2023/09/26 05:07:16;;;;;;;;;;;;;;;19.69;81.08;101203.75;5317501;33;32794;-80
2023/09/26 05:10:18;;;;;;;;;;;;;;;19.47;82.46;101214.91;5315331;33;34295;-79
2023/09/26 05:13:20;;;;;;;;;;;;;;;19.45;82.78;101216.81;5315039;33;34543;-80
2023/09/26 05:16:23;;;;;;;;;;;;;;;18.93;84.46;101215.56;5315571;33;34328;-80
2023/09/26 05:19:25;;;;;;;;;;;;;;;19.25;83.94;101214.50;5322998;33;34007;-80
2023/09/26 05:22:27;;;;;;;;;;;;;;;19.78;80.50;101212.97;5316463;33;34282;-79
2023/09/26 05:25:30;;;;;;;;;;;;;;;20.20;78.57;101210.16;5365058;32;34189;-80
2023/09/26 05:28:33;;;;;;;;;;;;;;;20.88;75.70;101210.97;5351000;32;34060;-81
2023/09/26 05:31:36;;;;;;;;;;;;;;;20.86;74.73;101221.75;5371494;32;34087;-82
2023/09/26 05:34:38;;;;;;;;;;;;;;;20.96;74.53;101220.16;5361998;32;35140;-83
2023/09/26 05:37:40;;;;;;;;;;;;;;;21.36;72.14;101210.22;5340774;32;33572;-81
2023/09/26 05:40:43;;;;;;;;;;;;;;;21.46;70.57;101206.91;5343669;32;34270;-79
2023/09/26 05:43:45;;;;;;;;;;;;;;;21.92;68.68;101209.75;5356377;32;34306;-80
2023/09/26 05:46:47;;;;;;;;;;;;;;;22.68;65.83;101213.88;5365852;32;35308;-81
2023/09/26 05:49:51;;;;;;;;;;;;;;;22.58;65.68;101212.87;5360956;32;34051;-78
2023/09/26 05:52:54;;;;;;;;;;;;;;;22.12;67.08;101217.19;5422327;32;35601;-79
2023/09/26 05:55:56;;;;;;;;;;;;;;;23.71;61.47;101214.72;5424725;32;34287;-79
2023/09/26 05:59:01;;;;;;;;;;;;;;;24.04;59.92;101211.12;5426369;32;34092;-79
2023/09/26 06:02:03;;;;;;;;;;;;;;;23.43;61.87;101208.84;5424998;32;33829;-80
2023/09/26 06:05:05;;;;;;;;;;;;;;;24.16;58.85;101210.09;5408039;32;34136;-82
2023/09/26 06:08:08;;;;;;;;;;;;;;;24.65;57.77;101210.50;5408708;32;34869;-80
2023/09/26 06:11:11;;;;;;;;;;;;;;;25.54;54.43;101214.38;5416234;32;34213;-80
2023/09/26 06:14:16;;;;;;;;;;;;;;;25.94;53.35;101208.97;5416416;32;35200;-81
2023/09/26 06:17:18;;;;;;;;;;;;;;;25.32;55.42;101210.91;5424986;32;35052;-79
2023/09/26 06:20:21;;;;;;;;;;;;;;;25.82;53.39;101202.00;5424930;32;35957;-80
2023/09/26 06:23:25;;;;;;;;;;;;;;;26.12;52.31;101207.31;5423812;32;35241;-85
2023/09/26 06:26:29;;;;;;;;;;;;;;;26.10;52.55;101198.53;5422673;32;34510;-84
2023/09/26 06:29:31;;;;;;;;;;;;;;;26.09;52.82;101202.22;5418016;32;35593;-82
2023/09/26 06:32:37;;;;;;;;;;;;;;;26.26;50.98;101202.50;5429216;32;35349;-81
2023/09/26 06:35:39;;;;;;;;;;;;;;;26.93;49.96;101193.50;5429294;32;35224;-84
2023/09/26 06:38:42;;;;;;;;;;;;;;;26.16;50.88;101203.34;5424489;32;34189;-83
2023/09/26 06:41:47;;;;;;;;;;;;;;;25.45;54.00;101201.75;5429426;32;34504;-82
2023/09/26 06:44:50;;;;;;;;;;;;;;;25.43;53.43;101193.81;5431309;32;34084;-81
2023/09/26 06:47:53;;;;;;;;;;;;;;;26.84;49.62;101192.50;5427273;32;34418;-89
2023/09/26 06:50:56;;;;;;;;;;;;;;;26.76;49.45;101199.63;5436729;32;35484;-82
2023/09/26 06:53:59;;;;;;;;;;;;;;;26.28;50.81;101204.06;5422669;32;34244;-80
2023/09/26 06:57:02;;;;;;;;;;;;;;;27.00;48.71;101202.72;5426481;32;34599;-82
2023/09/26 07:00:16;;;;;;;;;;;;;;;26.36;49.85;101196.13;5424895;32;34326;-79
2023/09/26 07:03:19;;;;;;;;;;;;;;;25.67;52.89;101193.44;5421649;32;34328;-82
2023/09/26 07:06:23;;;;;;;;;;;;;;;25.87;51.67;101200.59;5429889;32;36456;-82
2023/09/26 07:09:26;;;;;;;;;;;;;;;27.31;47.67;101199.75;5423171;32;35385;-84
2023/09/26 07:12:28;;;;;;;;;;;;;;;27.59;46.91;101190.69;5427461;32;35555;-79
2023/09/26 07:15:32;;;;;;;;;;;;;;;26.93;48.26;101205.12;5415501;32;34133;-79
2023/09/26 07:18:36;;;;;;;;;;;;;;;27.35;47.69;101195.78;5426340;32;34059;-79
2023/09/26 07:21:40;;;;;;;;;;;;;;;28.60;44.29;101200.34;5424595;32;34875;-78
2023/09/26 07:24:42;;;;;;;;;;;;;;;27.61;46.54;101206.72;5426079;32;34207;-81
2023/09/26 07:27:54;;;;;;;;;;;;;;;27.72;46.83;101201.16;5429210;32;33517;-81
2023/09/26 07:31:09;;;;;;;;;;;;;;;27.20;47.89;101206.22;5429469;32;35076;-85
2023/09/26 07:34:16;;;;;;;;;;;;;;;28.50;44.28;101204.13;5409482;32;34352;-78
2023/09/26 07:37:21;;;;;;;;;;;;;;;27.56;46.31;101204.47;5429110;32;34264;-82
2023/09/26 07:40:25;;;;;;;;;;;;;;;27.10;47.68;101216.19;5422636;32;33253;-83
2023/09/26 07:43:33;;;;;;;;;;;;;;;27.46;45.90;101211.78;5396180;32;34939;-82
2023/09/26 07:46:36;;;;;;;;;;;;;;;27.51;45.78;101215.75;5426056;32;35007;-81
2023/09/26 07:49:40;;;;;;;;;;;;;;;28.93;42.90;101206.00;5425123;32;34464;-80
2023/09/26 07:52:42;;;;;;;;;;;;;;;27.72;44.38;101223.59;5418809;32;34301;-80
2023/09/26 07:55:48;;;;;;;;;;;;;;;27.50;45.75;101222.16;5415673;32;34188;-79
2023/09/26 07:58:50;;;;;;;;;;;;;;;26.25;49.29;101231.28;5419388;32;34651;-77
2023/09/26 08:01:53;;;;;;;;;;;;;;;25.62;49.71;101222.63;5416570;32;34220;-78
2023/09/26 08:05:02;;;;;;;;;;;;;;;25.64;50.10;101231.44;5424075;32;35853;-79
2023/09/26 08:08:06;;;;;;;;;;;;;;;26.12;49.37;101228.00;5404851;32;34623;-79
2023/09/26 08:11:10;;;;;;;;;;;;;;;26.08;49.27;101226.56;5422291;32;35842;-79
2023/09/26 08:14:12;;;;;;;;;;;;;;;25.37;50.46;101230.22;5421720;32;34331;-80
2023/09/26 08:17:14;;;;;;;;;;;;;;;24.87;52.82;101231.03;5423609;32;34939;-81
2023/09/26 08:20:24;;;;;;;;;;;;;;;25.01;52.89;101226.16;5415088;32;34085;-80
2023/09/26 08:23:26;;;;;;;;;;;;;;;25.40;51.71;101223.69;5419705;32;34281;-84
2023/09/26 08:26:29;;;;;;;;;;;;;;;25.92;50.41;101222.59;5425975;32;33861;-79
2023/09/26 08:29:31;;;;;;;;;;;;;;;25.48;51.21;101221.16;5423972;32;33256;-78
2023/09/26 08:32:33;;;;;;;;;;;;;;;25.87;49.89;101213.22;5423638;32;35193;-79
2023/09/26 08:35:36;;;;;;;;;;;;;;;25.53;51.48;101226.16;5422584;32;35160;-81
2023/09/26 08:38:42;;;;;;;;;;;;;;;24.49;53.79;101222.56;5402437;32;35731;-82
2023/09/26 08:41:47;;;;;;;;;;;;;;;24.89;53.17;101218.31;5426660;32;34125;-82
2023/09/26 08:44:52;;;;;;;;;;;;;;;25.75;50.69;101217.03;5421563;32;36883;-80
2023/09/26 08:47:57;;;;;;;;;;;;;;;25.51;51.74;101211.97;5422150;32;34439;-85
2023/09/26 08:51:00;;;;;;;;;;;;;;;25.99;48.32;101216.66;5428919;32;34618;-81
2023/09/26 08:54:07;;;;;;;;;;;;;;;25.99;48.02;101208.56;5424068;32;34212;-81
2023/09/26 08:57:12;;;;;;;;;;;;;;;24.84;50.70;101210.63;5426463;32;34220;-79
2023/09/26 09:00:19;;;;;;;;;;;;;;;25.04;50.33;101211.59;5425061;32;36304;-78
2023/09/26 09:03:24;;;;;;;;;;;;;;;24.98;50.92;101209.44;5422251;32;34733;-84
2023/09/26 09:06:28;;;;;;;;;;;;;;;25.28;50.61;101205.94;5424478;32;34988;-80
2023/09/26 09:09:30;;;;;;;;;;;;;;;25.34;49.81;101203.56;5424343;32;34701;-79
2023/09/26 09:12:40;;;;;;;;;;;;;;;25.84;49.06;101200.06;5408778;32;34283;-79
2023/09/26 09:15:46;;;;;;;;;;;;;;;26.42;46.86;101200.97;5412398;32;35276;-79
2023/09/26 09:18:50;;;;;;;;;;;;;;;26.40;47.36;101197.53;5423257;32;36069;-81
2023/09/26 09:21:54;;;;;;;;;;;;;;;28.03;42.36;101193.56;5410796;32;34375;-80
2023/09/26 09:24:56;;;;;;;;;;;;;;;30.06;38.35;101185.81;5416378;32;35183;-82
2023/09/26 09:28:01;;;;;;;;;;;;;;;29.04;38.85;101192.19;5406914;32;34702;-79
2023/09/26 09:31:06;;;;;;;;;;;;;;;30.80;35.99;101184.00;5426140;32;34778;-79
2023/09/26 09:34:09;;;;;;;;;;;;;;;31.44;34.50;101178.56;5427156;32;34161;-81
2023/09/26 09:37:12;;;;;;;;;;;;;;;32.63;32.11;101178.09;5424993;32;36745;-81
2023/09/26 09:40:25;;;;;;;;;;;;;;;33.72;30.47;101170.19;5422846;32;34265;-78
2023/09/26 09:43:39;;;;;;;;;;;;;;;35.11;27.60;101164.09;5412748;32;36765;-82
2023/09/26 09:46:44;;;;;;;;;;;;;;;36.25;26.24;101144.25;5424093;32;36100;-81
2023/09/26 09:49:47;;;;;;;;;;;;;;;34.86;27.58;101163.72;5409839;32;35937;-85
2023/09/26 09:53:06;;;;;;;;;;;;;;;34.53;28.24;101165.37;5418134;32;35098;-84
2023/09/26 09:56:09;;;;;;;;;;;;;;;35.13;27.16;101147.50;5425629;32;36388;-80
2023/09/26 09:59:12;;;;;;;;;;;;;;;36.99;24.10;101135.78;5410656;32;34798;-85
2023/09/26 10:02:15;;;;;;;;;;;;;;;35.92;25.25;101136.84;5414803;32;34679;-80
2023/09/26 10:05:20;;;;;;;;;;;;;;;38.73;21.91;101118.81;5420828;32;35126;-80
2023/09/26 10:08:22;;;;;;;;;;;;;;;36.43;24.56;101119.84;5424535;32;34489;-81
2023/09/26 10:11:26;;;;;;;;;;;;;;;36.66;23.69;101124.03;5424804;32;34272;-80
2023/09/26 10:14:31;;;;;;;;;;;;;;;36.32;24.23;101112.25;5429502;32;34627;-81
2023/09/26 10:17:33;;;;;;;;;;;;;;;37.54;22.96;101119.72;5430272;32;34326;-81
2023/09/26 10:20:35;;;;;;;;;;;;;;;38.98;21.03;101104.19;5429992;32;34441;-88
2023/09/26 10:24:05;;;;;;;;;;;;;;;38.81;21.22;101105.84;5426905;32;34384;-84
2023/09/26 10:27:09;;;;;;;;;;;;;;;37.62;23.20;101100.28;5427235;32;33907;-85
2023/09/26 10:30:38;;;;;;;;;;;;;;;38.52;21.84;101105.50;5426632;32;35380;-82
2023/09/26 10:33:52;;;;;;;;;;;;;;;39.75;20.74;101090.69;5413629;32;34803;-83
2023/09/26 10:36:55;;;;;;;;;;;;;;;38.42;21.13;101092.28;5428623;32;35872;-83
2023/09/26 10:39:58;;;;;;;;;;;;;;;35.71;24.03;101088.63;5426333;32;34153;-82
2023/09/26 10:43:06;;;;;;;;;;;;;;;33.83;26.97;101094.19;5414980;32;34823;-80
2023/09/26 10:46:28;;;;;;;;;;;;;;;34.34;26.38;101090.47;5428210;32;34544;-84
2023/09/26 10:49:31;;;;;;;;;;;;;;;30.97;30.90;101093.34;5429127;32;35513;-84
2023/09/26 10:52:36;;;;;;;;;;;;;;;31.01;30.95;101088.44;5428163;32;34285;-83
2023/09/26 10:55:47;;;;;;;;;;;;;;;31.08;30.67;101089.41;5429451;32;34982;-85
2023/09/26 10:58:52;;;;;;;;;;;;;;;30.30;32.54;101086.56;5418556;32;34272;-85
2023/09/26 11:01:58;;;;;;;;;;;;;;;30.68;31.01;101077.69;5421348;32;33225;-86
2023/09/26 11:05:05;;;;;;;;;;;;;;;30.74;31.72;101070.72;5414138;32;34597;-85
2023/09/26 11:08:08;;;;;;;;;;;;;;;30.29;32.08;101080.28;5427398;32;33749;-85
2023/09/26 11:11:18;;;;;;;;;;;;;;;30.20;31.89;101093.00;5410111;32;34928;-84
2023/09/26 11:14:23;;;;;;;;;;;;;;;29.67;32.36;101074.50;5404640;32;34366;-86
2023/09/26 11:17:27;;;;;;;;;;;;;;;29.97;31.20;101072.16;5423822;32;34642;-83
2023/09/26 11:20:32;;;;;;;;;;;;;;;30.91;29.79;101074.22;5422463;32;34615;-80
2023/09/26 11:23:39;;;;;;;;;;;;;;;30.50;30.23;101068.88;5425598;32;34198;-83
2023/09/26 11:26:43;;;;;;;;;;;;;;;30.73;29.99;101059.03;5430741;32;34324;-78
2023/09/26 11:29:48;;;;;;;;;;;;;;;30.42;30.56;101058.06;5423455;32;34820;-81
2023/09/26 11:33:04;;;;;;;;;;;;;;;31.03;30.06;101048.38;5407208;32;35442;-78
2023/09/26 11:36:07;;;;;;;;;;;;;;;30.71;31.16;101049.34;5421262;32;33968;-81
2023/09/26 11:39:22;;;;;;;;;;;;;;;30.45;30.26;101055.00;5422789;32;35324;-83
2023/09/26 11:42:24;;;;;;;;;;;;;;;30.19;31.41;101050.63;5425382;32;35432;-84
2023/09/26 11:45:27;;;;;;;;;;;;;;;30.62;30.50;101045.81;5419270;32;33883;-83
2023/09/26 11:48:35;;;;;;;;;;;;;;;32.56;27.70;101038.38;5425046;32;34154;-81
2023/09/26 11:51:37;;;;;;;;;;;;;;;32.26;27.60;101034.75;5424712;32;35188;-79
2023/09/26 11:54:40;;;;;;;;;;;;;;;33.00;26.86;101032.06;5423883;32;33284;-78
2023/09/26 11:57:45;;;;;;;;;;;;;;;31.64;28.38;101024.94;5418741;32;36027;-79
2023/09/26 12:00:48;;;;;;;;;;;;;;;30.69;28.63;101035.97;5423405;32;34233;-83
2023/09/26 12:03:53;;;;;;;;;;;;;;;30.10;29.00;101034.56;5422421;32;33887;-80
2023/09/26 12:06:55;;;;;;;;;;;;;;;29.36;30.38;101034.47;5426920;32;36461;-80
2023/09/26 12:10:00;;;;;;;;;;;;;;;30.65;28.32;101025.59;5421701;32;35234;-80
2023/09/26 12:13:06;;;;;;;;;;;;;;;30.88;28.22;101018.44;5425738;32;34020;-81
2023/09/26 12:16:08;;;;;;;;;;;;;;;30.95;28.76;101010.41;5423086;32;34292;-79
2023/09/26 12:19:11;;;;;;;;;;;;;;;30.34;30.00;101014.72;5411511;32;35353;-77
2023/09/26 12:22:15;;;;;;;;;;;;;;;30.80;29.44;101017.63;5429501;32;34914;-87
2023/09/26 12:25:24;;;;;;;;;;;;;;;30.67;29.64;101005.47;5414999;32;34474;-88
2023/09/26 12:28:26;;;;;;;;;;;;;;;30.37;28.70;101015.19;5413294;32;35528;-85
2023/09/26 12:31:28;;;;;;;;;;;;;;;31.22;27.07;101012.63;5427337;32;34212;-83
2023/09/26 12:34:33;;;;;;;;;;;;;;;31.19;27.37;101007.56;5428286;32;33927;-79
2023/09/26 12:37:41;;;;;;;;;;;;;;;30.77;27.82;101001.69;5424379;32;34093;-84
2023/09/26 12:40:47;;;;;;;;;;;;;;;30.20;28.67;101003.53;5422542;32;34086;-81
2023/09/26 12:43:50;;;;;;;;;;;;;;;30.24;27.44;100993.19;5415146;32;33551;-80
2023/09/26 12:46:55;;;;;;;;;;;;;;;29.93;28.09;100995.75;5423704;32;34962;-83
2023/09/26 12:50:08;;;;;;;;;;;;;;;31.65;26.46;100999.44;5422980;32;35558;-82
2023/09/26 12:53:13;;;;;;;;;;;;;;;32.52;25.15;100985.34;5425830;32;33820;-82
2023/09/26 12:56:17;;;;;;;;;;;;;;;32.38;25.55;100987.06;5416842;32;34194;-82
2023/09/26 12:59:39;;;;;;;;;;;;;;;33.62;23.03;100988.75;5399523;32;33752;-81
2023/09/26 13:02:42;;;;;;;;;;;;;;;35.14;20.79;100969.72;5380942;32;35280;-84
2023/09/26 13:05:44;;;;;;;;;;;;;;;37.27;18.68;100973.75;5389120;32;34763;-83
2023/09/26 13:08:47;;;;;;;;;;;;;;;37.80;17.89;100967.88;5388706;32;34088;-87
2023/09/26 13:11:49;;;;;;;;;;;;;;;36.16;18.78;100964.94;5406403;32;34206;-84
2023/09/26 13:14:59;;;;;;;;;;;;;;;37.22;17.82;100964.50;5402391;32;35534;-84
2023/09/26 13:18:04;;;;;;;;;;;;;;;39.59;15.72;100962.03;5415807;32;34055;-86
2023/09/26 13:21:10;;;;;;;;;;;;;;;40.07;15.44;100959.13;5392678;32;34118;-88
2023/09/26 13:24:12;;;;;;;;;;;;;;;40.93;14.36;100954.59;5380300;32;34258;-89
2023/09/26 13:27:15;;;;;;;;;;;;;;;41.12;14.24;100949.72;5399073;32;35002;-84
2023/09/26 13:30:17;;;;;;;;;;;;;;;39.47;15.59;100948.25;5390473;32;32905;-83
2023/09/26 13:33:20;;;;;;;;;;;;;;;37.07;17.42;100959.34;5384173;32;34260;-85
2023/09/26 13:36:22;;;;;;;;;;;;;;;34.44;20.31;100949.91;5409010;32;33598;-80
2023/09/26 13:39:25;;;;;;;;;;;;;;;32.99;21.86;100967.75;5402044;32;34310;-82
2023/09/26 13:42:28;;;;;;;;;;;;;;;31.41;23.98;100956.19;5412730;32;33459;-82
2023/09/26 13:45:34;;;;;;;;;;;;;;;31.61;23.48;100946.50;5433487;32;34029;-90
2023/09/26 13:48:36;;;;;;;;;;;;;;;31.47;23.53;100960.88;5419090;32;34329;-81
2023/09/26 13:51:41;;;;;;;;;;;;;;;31.07;24.22;100962.00;5411241;32;34220;-87
2023/09/26 13:54:44;;;;;;;;;;;;;;;31.38;23.79;100960.13;5426973;32;35362;-85
2023/09/26 13:57:51;;;;;;;;;;;;;;;30.36;25.14;100967.41;5410681;32;35653;-81
2023/09/26 14:00:53;;;;;;;;;;;;;;;30.38;24.95;100967.22;5425087;32;35317;-86
2023/09/26 14:03:55;;;;;;;;;;;;;;;30.79;23.85;100969.81;5425540;32;34074;-80
2023/09/26 14:07:00;;;;;;;;;;;;;;;30.57;23.90;100960.53;5412028;32;33932;-81
2023/09/26 14:10:05;;;;;;;;;;;;;;;30.59;23.85;100961.19;5404217;32;33816;-85
2023/09/26 14:13:07;;;;;;;;;;;;;;;30.16;24.48;100956.13;5426113;32;34295;-84
2023/09/26 14:16:10;;;;;;;;;;;;;;;29.72;24.60;100960.22;5427646;32;34598;-83
2023/09/26 14:19:14;;;;;;;;;;;;;;;29.60;24.02;100954.31;5428599;32;34760;-84
2023/09/26 14:22:17;;;;;;;;;;;;;;;29.55;24.03;100965.63;5413536;32;34335;-81
2023/09/26 14:25:19;;;;;;;;;;;;;;;30.07;23.80;100948.97;5405272;32;34790;-85
2023/09/26 14:28:22;;;;;;;;;;;;;;;30.21;23.50;100961.03;5420649;32;34152;-79
2023/09/26 14:31:24;;;;;;;;;;;;;;;29.58;24.51;100954.47;5425437;32;34151;-87
2023/09/26 14:34:26;;;;;;;;;;;;;;;29.42;25.06;100967.97;5430258;32;34384;-80
2023/09/26 14:37:31;;;;;;;;;;;;;;;28.85;25.92;100955.19;5429764;32;35458;-79
2023/09/26 14:40:33;;;;;;;;;;;;;;;29.34;25.72;100954.44;5427785;32;34190;-84
2023/09/26 14:43:35;;;;;;;;;;;;;;;29.56;25.71;100953.81;5414686;32;32893;-79
2023/09/26 14:46:38;;;;;;;;;;;;;;;29.63;25.37;100954.81;5429842;32;34192;-83
2023/09/26 14:49:40;;;;;;;;;;;;;;;29.98;24.30;100952.75;5434603;32;34697;-83
2023/09/26 14:52:42;;;;;;;;;;;;;;;29.59;25.06;100950.75;5434546;32;34244;-87
2023/09/26 14:55:44;;;;;;;;;;;;;;;29.21;25.88;100962.22;5431335;32;35290;-81
2023/09/26 14:58:47;;;;;;;;;;;;;;;28.82;26.36;100957.38;5431413;32;35387;-86
2023/09/26 15:01:50;;;;;;;;;;;;;;;29.41;26.05;100953.59;5420713;32;35197;-82
2023/09/26 15:04:52;;;;;;;;;;;;;;;29.20;26.55;100947.00;5423454;32;34185;-87
2023/09/26 15:07:54;;;;;;;;;;;;;;;29.38;26.97;100942.28;5439173;32;36598;-80
2023/09/26 15:10:56;;;;;;;;;;;;;;;28.63;28.41;100942.25;5432742;32;35292;-88
2023/09/26 15:13:59;;;;;;;;;;;;;;;29.14;27.52;100937.69;5436147;32;34157;-90
2023/09/26 15:17:05;;;;;;;;;;;;;;;29.26;27.34;100944.47;5436028;32;34412;-87
2023/09/26 15:20:08;;;;;;;;;;;;;;;29.19;27.82;100939.88;5432392;32;34537;-81
2023/09/26 15:23:11;;;;;;;;;;;;;;;28.67;28.76;100943.62;5432342;32;35394;-81
2023/09/26 15:26:13;;;;;;;;;;;;;;;29.03;28.35;100943.41;5438534;32;35337;-83
2023/09/26 15:29:15;;;;;;;;;;;;;;;28.99;28.41;100937.50;5435197;32;34266;-83
2023/09/26 15:32:17;;;;;;;;;;;;;;;28.47;29.26;100943.06;5429206;32;34208;-82
2023/09/26 15:35:20;;;;;;;;;;;;;;;28.39;29.68;100937.59;5430522;32;35397;-81
2023/09/26 15:38:22;;;;;;;;;;;;;;;28.73;28.83;100934.03;5432211;32;34074;-83
2023/09/26 15:41:24;;;;;;;;;;;;;;;29.06;28.45;100940.38;5423491;32;34090;-84
2023/09/26 15:44:27;;;;;;;;;;;;;;;28.63;29.24;100931.44;5430319;32;33676;-81
2023/09/26 15:47:29;;;;;;;;;;;;;;;29.04;28.76;100934.28;5426818;32;34075;-81
2023/09/26 15:50:32;;;;;;;;;;;;;;;29.21;28.54;100945.97;5424929;32;34200;-81
2023/09/26 15:53:34;;;;;;;;;;;;;;;28.68;29.76;100936.38;5424023;32;33999;-82
2023/09/26 15:56:36;;;;;;;;;;;;;;;28.70;29.55;100940.59;5430674;32;33621;-82
2023/09/26 15:59:38;;;;;;;;;;;;;;;28.46;30.68;100935.09;5415831;32;34116;-80
2023/09/26 16:02:41;;;;;;;;;;;;;;;28.10;31.79;100940.62;5420661;32;34267;-80
2023/09/26 16:05:43;;;;;;;;;;;;;;;27.93;32.14;100944.25;5416981;32;34237;-80